AVA211 SEQM-GABS
Flight info
| Callsign | AVA211 |
|---|---|
| Flight time | N/A |
| Altitude | 31000 |
| Route | QIT3 QIT UM776 IQT UM665 GAXES/N0506F330 UM665 MNS UZ81 BEL UZ56 VUREM/N0496F350 UZ56 EGIMI DCT 06N031W DCT IRAKU DCT 07N023W 07N019W DCT BOTBU UT254 LGI UB727 UBATI UBATI5D |
| Aircraft | B77W/H-SDE1E2E3FGHIJ2J3J4J5M1RWXY/LB1D1 |
Departure
| Time | 2026-04-29 04:24 |
|---|---|
| Airport | Mariscal Sucre International Airport (SEQM) |
Arrival
| Time | N/A |
|---|---|
| Airport | Modibo Keita International Airport (GABS) |
| Time | Latitude | Longitude | Altitude | Speed | Heading |
|---|---|---|---|---|---|
| 2026-04-29 04:03 | -0.12489 | -78.35919 | 7870 ft | 0 kts | 267° |
| 2026-04-29 04:14 | -0.12488 | -78.35907 | 7871 ft | 0 kts | 267° |
| 2026-04-29 04:14 | -0.12493 | -78.35854 | 7874 ft | 0 kts | 267° |
| 2026-04-29 04:15 | -0.12492 | -78.35841 | 7875 ft | 0 kts | 264° |
| 2026-04-29 04:15 | -0.12495 | -78.35846 | 7875 ft | 1 kts | 234° |
| 2026-04-29 04:15 | -0.12505 | -78.35850 | 7876 ft | 1 kts | 172° |
| 2026-04-29 04:15 | -0.12507 | -78.35849 | 7876 ft | 0 kts | 167° |
| 2026-04-29 04:16 | -0.12508 | -78.35849 | 7876 ft | 0 kts | 167° |
| 2026-04-29 04:17 | -0.12523 | -78.35845 | 7877 ft | 8 kts | 167° |
| 2026-04-29 04:17 | -0.12621 | -78.35834 | 7882 ft | 13 kts | 176° |
| 2026-04-29 04:17 | -0.12662 | -78.35830 | 7884 ft | 2 kts | 164° |
| 2026-04-29 04:17 | -0.12672 | -78.35825 | 7884 ft | 6 kts | 145° |
| 2026-04-29 04:18 | -0.12694 | -78.35760 | 7891 ft | 12 kts | 89° |
| 2026-04-29 04:18 | -0.12691 | -78.35677 | 7897 ft | 12 kts | 88° |
| 2026-04-29 04:18 | -0.12735 | -78.35606 | 7905 ft | 18 kts | 161° |
| 2026-04-29 04:18 | -0.12924 | -78.35590 | 7917 ft | 33 kts | 177° |
| 2026-04-29 04:19 | -0.13182 | -78.35582 | 7930 ft | 40 kts | 177° |
| 2026-04-29 04:19 | -0.13450 | -78.35570 | 7942 ft | 34 kts | 178° |
| 2026-04-29 04:19 | -0.13668 | -78.35561 | 7951 ft | 28 kts | 176° |
| 2026-04-29 04:19 | -0.13843 | -78.35555 | 7961 ft | 21 kts | 177° |
| 2026-04-29 04:20 | -0.13981 | -78.35548 | 7969 ft | 18 kts | 177° |
| 2026-04-29 04:20 | -0.14107 | -78.35543 | 7975 ft | 18 kts | 178° |
| 2026-04-29 04:20 | -0.14221 | -78.35526 | 7980 ft | 10 kts | 149° |
| 2026-04-29 04:20 | -0.14239 | -78.35508 | 7983 ft | 0 kts | 123° |
| 2026-04-29 04:21 | -0.14241 | -78.35506 | 7983 ft | 0 kts | 122° |
| 2026-04-29 04:22 | -0.14243 | -78.35503 | 7987 ft | 3 kts | 120° |
| 2026-04-29 04:22 | -0.14252 | -78.35412 | 7995 ft | 13 kts | 87° |
| 2026-04-29 04:22 | -0.14234 | -78.35372 | 7998 ft | 5 kts | 20° |
| 2026-04-29 04:23 | -0.14122 | -78.35368 | 7994 ft | 32 kts | 358° |
| 2026-04-29 04:23 | -0.13678 | -78.35387 | 7968 ft | 93 kts | 358° |
| 2026-04-29 04:23 | -0.12835 | -78.35423 | 7924 ft | 147 kts | 358° |
| 2026-04-29 04:23 | -0.11615 | -78.35475 | 7845 ft | 197 kts | 356° |
| 2026-04-29 04:24 | -0.10172 | -78.35539 | 8119 ft | 213 kts | 358° |
| 2026-04-29 04:24 | -0.08643 | -78.35600 | 8709 ft | 220 kts | 358° |
| 2026-04-29 04:24 | -0.07107 | -78.35666 | 9329 ft | 221 kts | 358° |
| 2026-04-29 04:24 | -0.05506 | -78.35735 | 9407 ft | 239 kts | 358° |
| 2026-04-29 04:25 | -0.03756 | -78.35810 | 9557 ft | 254 kts | 358° |
| 2026-04-29 04:25 | -0.01938 | -78.35889 | 9822 ft | 267 kts | 358° |
| 2026-04-29 04:25 | -0.00012 | -78.35972 | 10020 ft | 284 kts | 358° |
| 2026-04-29 04:25 | 0.01999 | -78.36060 | 10429 ft | 293 kts | 358° |
| 2026-04-29 04:26 | 0.04105 | -78.36168 | 10964 ft | 299 kts | 358° |
| 2026-04-29 04:26 | 0.06226 | -78.36308 | 11309 ft | 312 kts | 352° |
| 2026-04-29 04:26 | 0.08338 | -78.37041 | 11505 ft | 339 kts | 328° |
| 2026-04-29 04:26 | 0.10106 | -78.38713 | 11877 ft | 361 kts | 303° |
| 2026-04-29 04:27 | 0.11036 | -78.41116 | 12302 ft | 380 kts | 277° |
| 2026-04-29 04:27 | 0.10855 | -78.43807 | 12798 ft | 395 kts | 252° |
| 2026-04-29 04:27 | 0.09569 | -78.46254 | 13506 ft | 401 kts | 232° |
| 2026-04-29 04:27 | 0.07712 | -78.48322 | 14373 ft | 403 kts | 221° |
| 2026-04-29 04:28 | 0.05456 | -78.50041 | 15139 ft | 407 kts | 210° |
| 2026-04-29 04:28 | 0.02928 | -78.51322 | 15775 ft | 413 kts | 200° |
| 2026-04-29 04:28 | 0.00143 | -78.52148 | 16481 ft | 416 kts | 189° |
| 2026-04-29 04:28 | -0.02762 | -78.52464 | 17215 ft | 417 kts | 179° |
| 2026-04-29 04:29 | -0.05677 | -78.52258 | 17904 ft | 419 kts | 168° |
| 2026-04-29 04:29 | -0.08516 | -78.51536 | 18555 ft | 421 kts | 158° |
| 2026-04-29 04:29 | -0.11206 | -78.50317 | 19189 ft | 422 kts | 148° |
| 2026-04-29 04:29 | -0.13621 | -78.48667 | 19787 ft | 424 kts | 138° |
| 2026-04-29 04:30 | -0.15731 | -78.46607 | 20352 ft | 426 kts | 128° |
| 2026-04-29 04:30 | -0.17554 | -78.44231 | 20925 ft | 429 kts | 124° |
| 2026-04-29 04:30 | -0.21112 | -78.39346 | 21955 ft | 436 kts | 124° |
| 2026-04-29 04:31 | -0.22896 | -78.36894 | 22450 ft | 439 kts | 124° |
| 2026-04-29 04:31 | -0.24714 | -78.34396 | 22956 ft | 442 kts | 124° |
| 2026-04-29 04:31 | -0.26517 | -78.31917 | 23424 ft | 445 kts | 124° |
| 2026-04-29 04:31 | -0.28374 | -78.29366 | 23904 ft | 448 kts | 125° |
| 2026-04-29 04:32 | -0.30224 | -78.26823 | 24372 ft | 451 kts | 125° |
| 2026-04-29 04:32 | -0.32064 | -78.24294 | 24851 ft | 454 kts | 125° |
| 2026-04-29 04:32 | -0.33946 | -78.21708 | 25316 ft | 457 kts | 125° |
| 2026-04-29 04:32 | -0.35836 | -78.19112 | 25724 ft | 461 kts | 125° |
| 2026-04-29 04:33 | -0.37724 | -78.16517 | 26205 ft | 463 kts | 125° |
| 2026-04-29 04:33 | -0.39598 | -78.13942 | 26690 ft | 464 kts | 125° |
| 2026-04-29 04:33 | -0.41499 | -78.11330 | 27110 ft | 467 kts | 125° |
| 2026-04-29 04:33 | -0.43446 | -78.08652 | 27514 ft | 470 kts | 126° |
| 2026-04-29 04:34 | -0.45378 | -78.05997 | 27911 ft | 473 kts | 126° |
| 2026-04-29 04:34 | -0.47319 | -78.03330 | 28308 ft | 475 kts | 126° |
| 2026-04-29 04:34 | -0.49247 | -78.00681 | 28688 ft | 478 kts | 126° |
| 2026-04-29 04:34 | -0.51234 | -77.97952 | 29042 ft | 481 kts | 126° |
| 2026-04-29 04:35 | -0.53208 | -77.95239 | 29365 ft | 484 kts | 125° |
| 2026-04-29 04:35 | -0.55193 | -77.92509 | 29721 ft | 487 kts | 125° |
| 2026-04-29 04:35 | -0.57219 | -77.89726 | 30148 ft | 487 kts | 125° |
| 2026-04-29 04:35 | -0.59206 | -77.86996 | 30646 ft | 486 kts | 125° |
| 2026-04-29 04:36 | -0.61190 | -77.84268 | 31156 ft | 483 kts | 125° |
| 2026-04-29 04:36 | -0.63157 | -77.81565 | 31668 ft | 481 kts | 125° |
| 2026-04-29 04:36 | -0.65099 | -77.78896 | 32121 ft | 479 kts | 125° |
| 2026-04-29 04:36 | -0.67066 | -77.76193 | 32507 ft | 479 kts | 125° |
| 2026-04-29 04:37 | -0.69011 | -77.73521 | 32885 ft | 479 kts | 125° |
| 2026-04-29 04:37 | -0.70972 | -77.70825 | 33276 ft | 479 kts | 125° |
| 2026-04-29 04:37 | -0.72950 | -77.68107 | 33340 ft | 484 kts | 125° |
| 2026-04-29 04:37 | -0.74931 | -77.65383 | 33479 ft | 483 kts | 125° |
| 2026-04-29 04:38 | -0.76912 | -77.62661 | 33463 ft | 469 kts | 125° |
| 2026-04-29 04:38 | -0.78805 | -77.60060 | 33150 ft | 460 kts | 125° |
| 2026-04-29 04:38 | -0.80681 | -77.57481 | 33147 ft | 460 kts | 125° |
| 2026-04-29 04:39 | -0.84516 | -77.52210 | 33116 ft | 472 kts | 125° |
| 2026-04-29 04:39 | -0.88415 | -77.46849 | 33078 ft | 477 kts | 125° |
| 2026-04-29 04:40 | -0.92323 | -77.41477 | 33052 ft | 477 kts | 125° |
| 2026-04-29 04:40 | -0.96215 | -77.36128 | 33048 ft | 476 kts | 125° |
| 2026-04-29 04:41 | -1.00147 | -77.30722 | 33013 ft | 477 kts | 125° |
| 2026-04-29 04:41 | -1.04039 | -77.25371 | 33005 ft | 477 kts | 125° |
| 2026-04-29 04:42 | -1.07943 | -77.20003 | 32996 ft | 477 kts | 125° |
| 2026-04-29 04:42 | -1.11878 | -77.14593 | 32986 ft | 476 kts | 125° |
| 2026-04-29 04:43 | -1.15767 | -77.09245 | 32988 ft | 476 kts | 125° |
| 2026-04-29 04:43 | -1.19683 | -77.03861 | 32964 ft | 475 kts | 125° |
| 2026-04-29 04:44 | -1.23428 | -76.98709 | 32958 ft | 476 kts | 125° |
| 2026-04-29 04:44 | -1.27331 | -76.93342 | 32957 ft | 476 kts | 125° |
| 2026-04-29 04:45 | -1.31214 | -76.88002 | 32957 ft | 475 kts | 125° |
| 2026-04-29 04:45 | -1.35117 | -76.82633 | 32960 ft | 476 kts | 125° |
| 2026-04-29 04:46 | -1.39032 | -76.77248 | 32951 ft | 476 kts | 125° |
| 2026-04-29 04:46 | -1.42941 | -76.71870 | 32954 ft | 475 kts | 125° |
| 2026-04-29 04:47 | -1.46825 | -76.66528 | 32955 ft | 476 kts | 125° |
| 2026-04-29 04:47 | -1.50748 | -76.61130 | 32951 ft | 477 kts | 125° |
| 2026-04-29 04:48 | -1.54642 | -76.55772 | 32959 ft | 477 kts | 125° |
| 2026-04-29 04:48 | -1.58569 | -76.50369 | 32955 ft | 477 kts | 125° |
| 2026-04-29 04:49 | -1.62447 | -76.45032 | 32948 ft | 476 kts | 125° |
| 2026-04-29 04:49 | -1.66377 | -76.39623 | 32949 ft | 478 kts | 124° |
| 2026-04-29 04:50 | -1.70281 | -76.34251 | 32938 ft | 477 kts | 124° |
| 2026-04-29 04:50 | -1.74218 | -76.28831 | 32940 ft | 480 kts | 124° |
| 2026-04-29 04:51 | -1.78146 | -76.23425 | 32939 ft | 477 kts | 124° |
| 2026-04-29 04:51 | -1.82046 | -76.18056 | 32928 ft | 481 kts | 124° |
| 2026-04-29 04:52 | -1.86003 | -76.12608 | 32929 ft | 481 kts | 124° |
| 2026-04-29 04:52 | -1.89935 | -76.07194 | 32928 ft | 481 kts | 124° |
| 2026-04-29 04:53 | -1.93897 | -76.01738 | 32932 ft | 482 kts | 124° |
| 2026-04-29 04:53 | -1.97182 | -75.97214 | 32935 ft | 480 kts | 124° |